Time;durP1;ratioP1;P1;durP2;ratioP2;P2;SDS_P1;SDS_P2;PMS_P1;PMS_P2;Temp;Humidity;BMP_temperature;BMP_pressure;BME280_temperature;BME280_humidity;BME280_pressure;Samples;Min_cycle;Max_cycle;Signal;HPM_P1;HPM_P2
2022/09/01 00:00:22;;;;;;;3.25;2.28;;;19.50;82.10;;;17.87;68.62;100135.50;10384230;28;98000;-96
2022/09/01 00:05:25;;;;;;;3.72;2.17;;;19.20;83.60;;;17.56;70.49;100135.44;10352925;28;96419;-96
2022/09/01 00:10:29;;;;;;;3.83;2.45;;;18.90;85.70;;;17.22;72.31;100132.09;10379818;28;96359;-96
2022/09/01 00:15:34;;;;;;;3.60;2.15;;;18.60;87.00;;;16.92;73.49;100128.28;10362253;28;96044;-96
2022/09/01 00:20:38;;;;;;;4.18;2.78;;;18.40;88.40;;;16.70;74.84;100144.63;10344465;28;96527;-96
2022/09/01 00:25:41;;;;;;;5.25;2.45;;;18.10;90.10;;;16.46;76.23;100146.06;10355675;27;96339;-96
2022/09/01 00:30:44;;;;;;;2.92;2.30;;;17.90;91.10;;;16.25;77.11;100138.22;10387879;27;95740;-96
2022/09/01 00:35:47;;;;;;;3.17;2.15;;;17.70;91.90;;;16.12;78.45;100140.91;10392025;27;95748;-96
2022/09/01 00:40:51;;;;;;;4.90;2.42;;;17.60;92.70;;;16.09;79.31;100152.88;10410579;27;96153;-94
2022/09/01 00:45:56;;;;;;;4.32;1.98;;;17.50;94.00;;;15.98;80.04;100148.94;10377815;28;96431;-96
2022/09/01 00:51:02;;;;;;;3.53;2.10;;;17.40;95.00;;;15.86;80.87;100152.41;10375419;28;96808;-95
2022/09/01 00:56:08;;;;;;;4.88;1.92;;;17.30;96.80;;;15.68;81.66;100153.00;10330383;28;97607;-95
2022/09/01 01:01:13;;;;;;;4.95;2.50;;;17.20;98.10;;;15.49;82.52;100150.03;10357414;28;98540;-95
2022/09/01 01:06:18;;;;;;;5.82;2.67;;;17.00;99.70;;;15.37;83.50;100165.00;10339818;28;98235;-95
2022/09/01 01:11:21;;;;;;;7.10;2.45;;;16.90;99.90;;;15.31;84.33;100162.31;10353731;28;98419;-95
2022/09/01 01:16:27;;;;;;;3.10;2.13;;;16.80;99.90;;;15.29;85.26;100169.69;10337605;28;96645;-94
2022/09/01 01:27:05;;;;;;;5.72;2.35;;;16.70;99.90;;;15.16;86.38;100182.00;10359063;28;96591;-96
2022/09/01 01:32:12;;;;;;;2.88;2.10;;;16.60;99.90;;;15.04;86.85;100194.28;10337807;28;97300;-94
2022/09/01 01:37:15;;;;;;;4.97;2.28;;;16.50;99.90;;;14.91;87.60;100187.00;10342282;27;97569;-93
2022/09/01 01:42:18;;;;;;;4.17;1.60;;;16.40;99.90;;;14.85;88.25;100184.28;10344361;28;97979;-94
2022/09/01 01:47:21;;;;;;;2.97;1.80;;;16.30;99.90;;;14.78;88.71;100183.41;10340965;28;96739;-94
2022/09/01 01:52:24;;;;;;;2.95;2.00;;;16.20;99.90;;;14.73;89.32;100181.31;10332808;28;98458;-94
2022/09/01 01:57:31;;;;;;;4.63;2.30;;;16.20;99.90;;;14.72;89.87;100174.31;10362982;28;97844;-94
2022/09/01 02:02:36;;;;;;;4.05;2.00;;;16.20;99.90;;;14.71;90.08;100173.50;10345920;28;96639;-93
2022/09/01 02:07:41;;;;;;;2.63;1.80;;;16.20;99.90;;;14.72;90.71;100164.44;10363457;28;96610;-95
2022/09/01 02:12:45;;;;;;;2.17;1.70;;;16.20;99.90;;;14.75;91.39;100165.91;10358560;28;96798;-95
2022/09/01 02:17:48;;;;;;;4.38;2.60;;;16.20;99.90;;;14.78;91.58;100168.19;10359873;28;96521;-95
2022/09/01 02:22:54;;;;;;;2.33;2.00;;;16.20;99.90;;;14.82;91.69;100168.66;10335141;28;97502;-95
2022/09/01 02:27:59;;;;;;;4.05;1.73;;;16.20;99.90;;;14.78;92.20;100178.91;10360287;28;96697;-95
2022/09/01 02:33:03;;;;;;;2.30;1.77;;;16.20;99.90;;;14.74;92.55;100177.63;10344920;28;98552;-94
2022/09/01 02:38:07;;;;;;;3.07;1.80;;;16.20;99.90;;;14.71;92.64;100175.34;10356988;28;96708;-94
2022/09/01 02:43:12;;;;;;;4.03;2.20;;;16.20;99.90;;;14.66;93.01;100170.59;10358035;28;96537;-93
2022/09/01 02:48:16;;;;;;;3.63;2.33;;;16.10;99.90;;;14.64;93.13;100175.31;10362182;28;96737;-94
2022/09/01 02:53:21;;;;;;;3.47;1.80;;;16.10;99.90;;;14.64;93.68;100148.56;10358378;28;98567;-94
2022/09/01 02:58:26;;;;;;;5.03;1.63;;;16.10;99.90;;;14.61;94.16;100140.91;10359732;28;96565;-94
2022/09/01 03:03:29;;;;;;;4.10;2.25;;;16.10;99.90;;;14.56;94.18;100137.19;10359794;28;96680;-94
2022/09/01 03:08:35;;;;;;;4.57;2.20;;;16.10;99.90;;;14.49;94.74;100134.47;10317244;28;97754;-93
2022/09/01 03:13:40;;;;;;;5.68;2.35;;;16.00;99.90;;;14.54;95.00;100124.00;10358375;28;96628;-93
2022/09/01 03:18:43;;;;;;;3.00;1.98;;;16.00;99.90;;;14.51;95.00;100124.38;10356805;28;96631;-93
2022/09/01 03:23:49;;;;;;;4.20;2.15;;;16.00;99.90;;;14.49;95.48;100123.75;10340271;28;96850;-92
2022/09/01 03:28:52;;;;;;;3.60;1.92;;;16.00;99.90;;;14.48;95.89;100127.47;10341757;28;96787;-93
2022/09/01 03:33:55;;;;;;;4.35;2.15;;;15.90;99.90;;;14.44;96.28;100123.47;10342202;28;96710;-93
2022/09/01 03:39:00;;;;;;;5.60;2.10;;;15.90;99.90;;;14.42;96.50;100137.06;10357942;28;98287;-92
2022/09/01 03:44:02;;;;;;;2.50;1.83;;;15.90;99.90;;;14.31;96.57;100140.25;10338121;28;97410;-92
2022/09/01 03:49:06;;;;;;;4.07;2.20;;;15.80;99.90;;;14.24;96.98;100157.25;10341209;28;96583;-92
2022/09/01 03:54:10;;;;;;;2.75;2.10;;;15.70;99.90;;;14.15;97.02;100162.75;10355036;28;96557;-92
2022/09/01 03:59:15;;;;;;;4.23;2.40;;;15.60;99.90;;;14.12;97.42;100154.28;10347045;28;96670;-92
2022/09/01 04:04:19;;;;;;;6.97;2.20;;;15.60;99.90;;;14.08;97.52;100155.66;10338754;28;99238;-91
2022/09/01 04:09:22;;;;;;;3.90;2.00;;;15.50;99.90;;;14.00;97.83;100153.13;10313980;28;96699;-91
2022/09/01 04:14:26;;;;;;;6.47;2.50;;;15.40;99.90;;;13.91;97.96;100160.44;10343731;28;98221;-92
2022/09/01 04:19:38;;;;;;;5.17;2.80;;;15.30;99.90;;;13.84;98.10;100154.22;10318670;28;97265;-92
2022/09/01 04:24:44;;;;;;;9.10;2.87;;;15.30;99.90;;;13.85;98.39;100155.84;10340208;28;96660;-92
2022/09/01 04:29:48;;;;;;;5.57;2.60;;;15.30;99.90;;;13.84;98.58;100148.88;10341115;28;98457;-93
2022/09/01 04:34:51;;;;;;;3.83;2.20;;;15.30;99.90;;;13.86;99.00;100146.84;10338794;28;99347;-93
2022/09/01 04:39:56;;;;;;;4.33;2.10;;;15.40;99.90;;;13.85;98.92;100151.38;10338751;28;96878;-93
2022/09/01 04:45:00;;;;;;;4.03;2.37;;;15.30;99.90;;;13.83;99.48;100147.22;10354269;28;96689;-91
2022/09/01 04:50:13;;;;;;;5.23;2.63;;;15.30;99.90;;;13.79;99.64;100146.75;10355789;28;96673;-93
2022/09/01 04:55:16;;;;;;;4.00;2.23;;;15.30;99.90;;;13.76;99.71;100147.16;10349378;28;96633;-93
2022/09/01 05:00:22;;;;;;;5.50;2.77;;;15.20;99.90;;;13.71;100.00;100138.06;10373340;28;97637;-92
2022/09/01 05:05:26;;;;;;;4.13;2.20;;;15.20;99.90;;;13.70;100.00;100131.06;10362652;28;96850;-93
2022/09/01 05:10:30;;;;;;;5.63;3.00;;;15.20;99.90;;;13.71;100.00;100122.84;10343612;28;98100;-94
2022/09/01 05:15:34;;;;;;;5.63;2.80;;;15.20;99.90;;;13.74;100.00;100133.16;10354303;28;96617;-93
2022/09/01 05:20:40;;;;;;;3.80;2.57;;;15.20;99.90;;;13.77;100.00;100142.63;10334468;28;96892;-93
2022/09/01 05:25:45;;;;;;;5.50;2.30;;;15.20;99.90;;;13.77;100.00;100138.13;10350214;28;97402;-93
2022/09/01 05:30:52;;;;;;;6.60;2.70;;;15.30;99.90;;;13.85;100.00;100137.16;10357245;28;98367;-95
2022/09/01 05:36:00;;;;;;;4.22;1.67;;;15.30;99.90;;;13.81;100.00;100142.06;10353741;28;96494;-95
2022/09/01 05:41:07;;;;;;;2.97;2.27;;;15.30;99.90;;;13.78;100.00;100141.63;10340449;28;96597;-94
2022/09/01 05:46:12;;;;;;;3.33;2.30;;;15.30;99.90;;;13.77;100.00;100145.31;10356011;28;96539;-95
2022/09/01 05:51:21;;;;;;;5.27;2.33;;;15.30;99.90;;;13.74;100.00;100159.88;10354849;28;96591;-94
2022/09/01 05:56:44;;;;;;;3.90;2.00;;;15.20;99.90;;;13.71;100.00;100154.91;10359206;28;96646;-95
2022/09/01 06:01:47;;;;;;;3.30;2.10;;;15.20;99.90;;;13.70;100.00;100152.44;10372060;28;96497;-95
2022/09/01 06:06:54;;;;;;;3.72;2.20;;;15.20;99.90;;;13.72;100.00;100166.41;10355286;28;96667;-95
2022/09/01 06:12:16;;;;;;;3.87;2.17;;;15.20;99.90;;;13.78;100.00;100149.63;10367716;28;96474;-96
2022/09/01 06:17:23;;;;;;;3.50;1.83;;;15.30;99.90;;;13.89;100.00;100152.63;10365756;28;97510;-95
2022/09/01 06:22:28;;;;;;;2.27;1.60;;;15.40;99.90;;;13.97;100.00;100148.16;10373683;28;96516;-95
2022/09/01 06:27:33;;;;;;;2.78;1.77;;;15.50;99.90;;;14.02;100.00;100151.09;10361377;28;96418;-96
2022/09/01 06:32:37;;;;;;;3.30;2.05;;;15.50;99.90;;;14.03;100.00;100148.22;10348047;28;96525;-96
2022/09/01 06:37:44;;;;;;;6.13;1.52;;;15.50;99.90;;;14.04;100.00;100160.59;10347072;28;96419;-96
2022/09/01 06:42:50;;;;;;;4.03;1.40;;;15.60;99.90;;;14.00;100.00;100166.50;10342041;28;96541;-96
2022/09/01 06:47:54;;;;;;;3.00;1.70;;;15.50;99.90;;;13.99;100.00;100163.00;10363555;28;96563;-96
2022/09/01 06:53:09;;;;;;;2.05;1.40;;;15.50;99.90;;;14.03;100.00;100158.91;10362876;28;96449;-96
2022/09/01 06:58:33;;;;;;;2.30;1.73;;;15.50;99.90;;;14.05;100.00;100162.25;10374780;28;96597;-96
2022/09/01 07:03:38;;;;;;;3.63;1.60;;;15.60;99.90;;;14.07;100.00;100165.53;10340031;28;96724;-96
2022/09/01 07:08:48;;;;;;;3.28;1.40;;;15.60;99.90;;;14.18;100.00;100172.22;10394492;27;96518;-96
2022/09/01 07:14:14;;;;;;;2.10;1.60;;;15.70;99.90;;;14.23;100.00;100177.00;10378301;28;96414;-96
2022/09/01 07:19:18;;;;;;;2.60;1.20;;;15.70;99.90;;;14.27;100.00;100170.22;10356702;28;96835;-96
2022/09/01 07:24:21;;;;;;;2.22;1.40;;;15.80;99.90;;;14.29;100.00;100179.72;10368272;28;96810;-96
2022/09/01 07:29:34;;;;;;;4.68;2.00;;;15.80;99.90;;;14.32;100.00;100178.50;10363847;28;96482;-96
2022/09/01 07:34:38;;;;;;;2.47;1.50;;;15.80;99.90;;;14.37;100.00;100176.09;10357728;28;96604;-96
2022/09/01 07:39:45;;;;;;;2.53;1.47;;;15.90;99.90;;;14.35;100.00;100172.78;10359510;28;96411;-96
2022/09/01 07:44:51;;;;;;;3.00;1.40;;;15.90;99.90;;;14.42;100.00;100174.47;10354004;28;96406;-96
2022/09/01 07:49:55;;;;;;;2.00;1.30;;;15.90;99.90;;;14.52;100.00;100171.53;10347205;28;96729;-95
2022/09/01 07:55:18;;;;;;;3.35;1.40;;;16.00;99.90;;;14.67;100.00;100174.91;10350769;28;96631;-95
2022/09/01 08:00:21;;;;;;;2.58;0.98;;;16.10;99.90;;;14.87;100.00;100179.56;10359096;28;96448;-95
2022/09/01 08:05:25;;;;;;;1.60;1.00;;;16.30;99.90;;;15.07;100.00;100185.03;10357533;28;97297;-95
2022/09/01 08:10:28;;;;;;;22.60;8.75;;;16.50;99.90;;;15.23;100.00;100179.34;10343272;28;96776;-93
2022/09/01 08:15:31;;;;;;;6.18;2.42;;;16.70;99.90;;;15.39;100.00;100183.56;10374338;28;96520;-93
2022/09/01 08:20:55;;;;;;;3.65;1.67;;;16.80;99.90;;;15.54;100.00;100178.88;10361866;28;96536;-91
2022/09/01 08:25:57;;;;;;;3.30;1.27;;;17.00;99.90;;;15.64;100.00;100181.19;10371919;28;96960;-92
2022/09/01 08:31:16;;;;;;;1.58;0.85;;;17.10;99.90;;;15.70;100.00;100170.50;10350984;28;97329;-92
2022/09/01 08:36:21;;;;;;;6.05;1.23;;;17.20;99.90;;;15.82;100.00;100177.94;10355422;28;96929;-92
2022/09/01 08:41:49;;;;;;;3.85;1.45;;;17.30;99.90;;;15.97;100.00;100183.97;10315271;28;96616;-92
2022/09/01 08:47:07;;;;;;;2.05;1.20;;;17.40;99.90;;;16.12;100.00;100181.94;10300644;28;96569;-94
2022/09/01 08:52:29;;;;;;;2.55;1.20;;;17.60;99.90;;;16.29;100.00;100179.69;10344075;28;96780;-92
2022/09/01 08:57:35;;;;;;;2.55;1.20;;;17.80;99.90;;;16.52;100.00;100179.28;10357252;28;96575;-93
2022/09/01 09:03:17;;;;;;;1.85;0.90;;;18.00;99.90;;;16.64;100.00;100180.28;10340186;28;96596;-93
2022/09/01 09:09:02;;;;;;;2.28;0.80;;;18.10;99.90;;;16.81;100.00;100178.88;10328409;28;96693;-94
2022/09/01 09:14:30;;;;;;;3.05;0.77;;;18.30;99.90;;;16.89;100.00;100180.50;10340048;28;96609;-92
2022/09/01 09:19:41;;;;;;;3.13;0.80;;;18.40;99.90;;;16.92;100.00;100176.59;10355377;28;96699;-93
2022/09/01 09:24:54;;;;;;;3.50;0.98;;;18.40;99.90;;;16.93;100.00;100178.22;10329861;28;96740;-94
2022/09/01 09:30:00;;;;;;;1.85;0.93;;;18.40;99.90;;;16.91;99.28;100174.91;10339827;28;96596;-93
2022/09/01 09:35:31;;;;;;;4.40;0.98;;;18.40;99.90;;;16.88;97.49;100154.69;10373019;28;96414;-93
2022/09/01 09:40:34;;;;;;;1.90;0.80;;;18.40;99.90;;;16.90;96.26;100165.22;10339616;28;98573;-93
2022/09/01 09:46:37;;;;;;;1.50;0.80;;;18.40;99.90;;;17.06;95.86;100154.03;10344468;28;96565;-93
2022/09/01 09:51:44;;;;;;;1.27;0.73;;;18.60;99.90;;;17.27;92.27;100155.59;10374343;28;96542;-94
2022/09/01 09:57:01;;;;;;;2.53;0.75;;;18.80;99.90;;;17.46;84.49;100148.53;10369206;28;96814;-94
2022/09/01 10:02:41;;;;;;;1.67;0.80;;;19.00;99.90;;;17.54;75.25;100146.41;10362405;28;96539;-95
2022/09/01 10:07:44;;;;;;;2.13;0.70;;;19.10;99.90;;;17.61;71.93;100143.66;10363418;28;97530;-96
2022/09/01 10:12:47;;;;;;;1.85;0.70;;;19.20;99.90;;;17.74;73.58;100138.25;10364780;27;96832;-94
2022/09/01 10:17:54;;;;;;;1.05;0.45;;;19.30;99.90;;;18.01;73.45;100140.78;10363552;28;96496;-96
2022/09/01 10:23:17;;;;;;;5.10;0.90;;;19.60;99.90;;;18.19;72.32;100127.41;10351004;28;96616;-93
2022/09/01 10:28:23;;;;;;;3.88;0.73;;;19.90;99.90;;;18.39;66.46;100130.72;10344516;28;96671;-93
2022/09/01 10:33:27;;;;;;;1.00;0.63;;;20.10;98.40;;;18.57;63.11;100124.56;10346335;28;96742;-95
2022/09/01 10:38:30;;;;;;;2.90;0.80;;;20.30;95.90;;;18.72;63.42;100121.56;10348159;28;96674;-94
2022/09/01 10:43:42;;;;;;;1.65;0.52;;;20.50;95.50;;;19.01;62.74;100133.44;10321743;28;97862;-93
2022/09/01 10:48:55;;;;;;;1.42;0.70;;;20.70;95.20;;;19.23;63.75;100123.88;10313734;28;96519;-96
2022/09/01 10:54:06;;;;;;;1.88;0.70;;;21.00;94.80;;;19.39;57.38;100116.22;10359992;28;96616;-91
2022/09/01 10:59:22;;;;;;;0.90;0.50;;;21.10;90.90;;;19.56;55.28;100113.72;10343747;28;96523;-93
2022/09/01 11:04:38;;;;;;;2.17;0.90;;;21.30;87.60;;;19.81;56.26;100106.31;10376563;28;96605;-93
2022/09/01 11:10:05;;;;;;;1.65;0.93;;;21.60;88.00;;;20.07;52.31;100096.16;10356280;28;96668;-93
2022/09/01 11:15:13;;;;;;;2.25;0.77;;;21.90;81.50;;;20.52;51.99;100091.91;10379105;28;98729;-92
2022/09/01 11:20:37;;;;;;;1.25;0.55;;;22.40;80.40;;;20.89;52.06;100088.09;10359888;28;96647;-93
2022/09/01 11:25:47;;;;;;;1.95;0.50;;;22.80;80.80;;;21.20;50.47;100084.13;10375898;28;96519;-93
2022/09/01 11:31:34;;;;;;;2.30;0.77;;;23.00;76.30;;;21.24;47.23;100088.81;10346725;28;96565;-94
2022/09/01 11:36:46;;;;;;;2.38;0.70;;;23.10;73.70;;;21.46;48.43;100077.34;10343955;28;96734;-93
2022/09/01 11:42:17;;;;;;;2.55;0.70;;;23.20;72.60;;;21.62;47.21;100080.09;10354521;28;97742;-92
2022/09/01 11:47:25;;;;;;;1.98;0.80;;;23.40;71.90;;;21.67;49.34;100086.66;10353920;28;96574;-93
2022/09/01 11:52:37;;;;;;;1.13;0.60;;;23.40;70.90;;;21.78;52.94;100072.25;10340442;28;97488;-92
2022/09/01 11:57:40;;;;;;;1.17;0.52;;;23.50;73.20;;;21.95;48.59;100072.25;10340426;28;96606;-92
2022/09/01 12:02:50;;;;;;;1.90;0.60;;;23.70;70.50;;;22.09;47.33;100062.75;10374689;28;96421;-93
2022/09/01 12:07:54;;;;;;;1.17;0.60;;;23.90;69.10;;;22.16;45.48;100063.44;10338738;28;96608;-92
2022/09/01 12:13:03;;;;;;;1.10;0.55;;;24.00;67.10;;;22.23;46.79;100064.06;10330974;28;96560;-92
2022/09/01 12:18:23;;;;;;;3.30;0.77;;;24.10;66.60;;;22.46;47.68;100068.47;10320111;28;96874;-91
2022/09/01 12:23:41;;;;;;;1.45;0.70;;;24.30;68.90;;;22.52;48.34;100059.34;10355165;28;96649;-91
2022/09/01 12:28:48;;;;;;;1.33;0.68;;;24.40;67.20;;;22.71;44.92;100052.56;10357512;28;96648;-91
2022/09/01 12:33:54;;;;;;;1.63;0.85;;;24.70;65.10;;;22.61;44.51;100052.44;10347111;28;96532;-90
2022/09/01 12:39:16;;;;;;;0.90;0.50;;;24.80;61.70;;;22.68;39.51;100054.97;10355175;28;96986;-89
2022/09/01 12:44:35;;;;;;;1.02;0.50;;;24.80;57.70;;;22.46;40.85;100057.63;10375927;28;96671;-91
2022/09/01 12:49:43;;;;;;;3.75;0.98;;;24.60;58.60;;;22.33;44.27;100056.09;10353803;28;99641;-89
2022/09/01 12:54:58;;;;;;;2.40;0.50;;;24.40;60.40;;;22.23;43.78;100055.94;10326518;28;96640;-89
2022/09/01 13:00:31;;;;;;;1.00;0.50;;;24.20;60.10;;;22.33;43.92;100053.41;10374153;28;96681;-90
2022/09/01 13:05:38;;;;;;;2.15;0.40;;;24.20;61.30;;;22.44;42.21;100048.97;10339945;28;96884;-89
2022/09/01 13:11:09;;;;;;;0.68;0.50;;;24.30;60.20;;;22.39;41.06;100043.47;10339129;28;96534;-90
2022/09/01 13:16:14;;;;;;;2.35;0.80;;;24.30;58.50;;;22.31;40.57;100043.88;10315055;28;98457;-91
2022/09/01 13:21:17;;;;;;;1.75;0.60;;;24.20;58.10;;;22.17;41.58;100044.22;10340168;28;96644;-93
2022/09/01 13:26:20;;;;;;;1.67;0.47;;;24.00;58.00;;;22.16;39.70;100042.59;10343377;28;96904;-93
2022/09/01 13:31:23;;;;;;;0.50;0.47;;;24.00;57.40;;;22.10;40.19;100045.47;10361782;28;96969;-94
2022/09/01 13:36:34;;;;;;;0.98;0.50;;;23.90;57.30;;;22.05;40.32;100048.06;10347739;28;97487;-95
2022/09/01 13:41:50;;;;;;;1.00;0.63;;;23.80;56.40;;;21.97;39.96;100057.41;10361905;28;96701;-91
2022/09/01 13:46:53;;;;;;;0.85;0.40;;;23.80;57.00;;;21.90;39.68;100059.47;10348834;28;96544;-94
2022/09/01 13:52:17;;;;;;;4.75;0.70;;;23.70;56.70;;;21.96;43.09;100052.25;10376763;28;96803;-94
2022/09/01 13:57:20;;;;;;;5.28;0.93;;;23.80;58.40;;;22.02;42.43;100052.09;10344642;28;97252;-92
2022/09/01 14:02:25;;;;;;;7.07;0.70;;;23.80;58.30;;;22.02;42.22;100035.84;10346385;28;98685;-93
2022/09/01 14:07:28;;;;;;;9.57;0.80;;;23.90;58.20;;;22.07;43.25;100044.06;10339279;28;97050;-92
2022/09/01 14:12:31;;;;;;;1.70;0.50;;;23.90;58.60;;;22.13;42.70;100045.81;10361022;28;97407;-93
2022/09/01 14:17:36;;;;;;;4.78;0.93;;;23.90;58.70;;;22.14;40.99;100041.22;10344466;28;96604;-94
2022/09/01 14:22:40;;;;;;;1.73;0.60;;;23.90;57.60;;;22.03;38.83;100042.91;10344287;28;96619;-92
2022/09/01 14:27:44;;;;;;;11.50;1.15;;;23.90;55.30;;;21.93;38.22;100037.31;10359992;28;96485;-91
2022/09/01 14:32:51;;;;;;;14.00;1.25;;;23.70;54.90;;;21.88;38.92;100046.16;10345099;28;96895;-91
2022/09/01 14:37:55;;;;;;;12.27;1.08;;;23.60;55.20;;;21.82;38.27;100041.75;10359075;28;96588;-92
2022/09/01 14:42:58;;;;;;;4.85;0.68;;;23.60;55.00;;;21.78;40.35;100039.78;10342214;28;96677;-92
2022/09/01 14:48:01;;;;;;;19.55;1.60;;;23.60;56.50;;;21.77;41.31;100038.13;10366572;28;98227;-89
2022/09/01 14:53:04;;;;;;;9.95;1.42;;;23.60;57.50;;;21.73;41.33;100048.63;10351456;28;96796;-90
2022/09/01 14:58:07;;;;;;;6.55;0.77;;;23.60;57.50;;;21.68;42.57;100051.25;10329931;28;96671;-91
2022/09/01 15:03:10;;;;;;;9.98;1.08;;;23.50;58.60;;;21.77;44.09;100054.34;10344058;28;96523;-90
2022/09/01 15:08:13;;;;;;;7.60;0.60;;;23.60;59.40;;;21.82;43.26;100049.03;10344456;28;97248;-90
2022/09/01 15:13:19;;;;;;;4.57;1.27;;;23.70;58.70;;;21.94;43.30;100057.06;10347838;28;96802;-90
2022/09/01 15:18:22;;;;;;;18.42;1.25;;;23.80;58.90;;;21.96;42.47;100058.50;10356173;28;96586;-90
2022/09/01 15:23:25;;;;;;;21.25;1.58;;;23.80;58.60;;;21.89;41.19;100057.81;10362117;28;97280;-88
2022/09/01 15:28:28;;;;;;;27.85;2.00;;;23.80;57.60;;;21.70;40.51;100057.22;10364848;28;97977;-89
2022/09/01 15:33:31;;;;;;;31.23;2.30;;;23.60;57.10;;;21.56;41.30;100054.03;10352465;28;97889;-90
2022/09/01 15:38:35;;;;;;;23.67;2.83;;;23.40;57.70;;;21.44;42.32;100050.56;10356832;28;96610;-88
2022/09/01 15:43:38;;;;;;;14.93;2.05;;;23.30;58.10;;;21.36;42.70;100059.06;10337360;28;96870;-89
2022/09/01 15:48:44;;;;;;;3.53;0.75;;;23.20;58.60;;;21.30;44.41;100054.63;10375720;28;96756;-89
2022/09/01 15:53:54;;;;;;;21.85;3.10;;;23.20;58.90;;;21.25;44.18;100068.00;10342128;28;97658;-89
2022/09/01 15:58:58;;;;;;;38.40;2.88;;;23.10;59.60;;;21.20;44.51;100059.81;10341091;28;97084;-88
2022/09/01 16:04:06;;;;;;;36.30;2.65;;;23.10;59.80;;;21.10;43.23;100061.22;10343095;28;96607;-88
2022/09/01 16:09:11;;;;;;;29.17;3.13;;;22.90;59.30;;;21.02;44.65;100063.50;10357674;28;96703;-88
2022/09/01 16:14:14;;;;;;;16.45;1.90;;;22.90;59.70;;;20.95;44.45;100071.75;10342061;28;96542;-89
2022/09/01 16:19:44;;;;;;;30.23;2.88;;;22.80;60.00;;;20.86;44.81;100065.06;10341718;28;96667;-88
2022/09/01 16:24:53;;;;;;;1.02;0.63;;;22.70;60.50;;;20.77;48.37;100063.81;10335213;28;96962;-88
2022/09/01 16:30:02;;;;;;;2.08;0.88;;;22.60;62.70;;;20.74;50.82;100062.38;10333532;28;96493;-88
2022/09/01 16:35:06;;;;;;;79.10;10.93;;;22.50;64.10;;;20.69;52.05;100064.16;10343375;28;96618;-88
2022/09/01 16:40:56;;;;;;;1.58;0.60;;;22.40;65.30;;;20.63;51.60;100067.81;10357010;28;96899;-88
2022/09/01 16:46:34;;;;;;;1.00;0.60;;;22.40;65.80;;;20.56;52.98;100071.44;10277231;28;97063;-88
2022/09/01 16:52:06;;;;;;;5.20;0.90;;;22.30;66.70;;;20.42;54.26;100075.44;10342562;28;96750;-88
2022/09/01 16:57:44;;;;;;;5.43;1.20;;;22.20;67.50;;;20.24;55.43;100072.84;10373936;28;96536;-88
2022/09/01 17:02:51;;;;;;;2.40;1.10;;;21.90;69.70;;;20.06;56.02;100079.16;10358234;28;96607;-88
2022/09/01 17:08:20;;;;;;;3.75;1.40;;;21.70;70.20;;;19.86;57.31;100092.16;10373010;28;96529;-88
2022/09/01 17:13:36;;;;;;;8.90;1.27;;;21.50;72.30;;;19.66;59.12;100092.44;10315460;28;96730;-88
2022/09/01 17:18:50;;;;;;;1.52;0.90;;;21.30;74.20;;;19.49;60.89;100098.47;10348940;28;96648;-88
2022/09/01 17:24:21;;;;;;;2.65;0.75;;;21.20;76.00;;;19.30;60.77;100086.06;10341159;28;96651;-88
2022/09/01 17:29:45;;;;;;;2.63;1.20;;;21.00;76.00;;;19.10;60.94;100094.41;10345068;28;96421;-88
2022/09/01 17:35:02;;;;;;;5.15;2.25;;;20.80;76.90;;;18.95;61.52;100102.88;10367626;28;96474;-90
2022/09/01 17:40:23;;;;;;;2.35;1.20;;;20.60;76.80;;;18.77;61.62;100099.34;10335145;28;99182;-93
2022/09/01 17:45:46;;;;;;;2.50;1.02;;;20.50;77.30;;;18.53;61.66;100107.25;10372504;28;97117;-90
2022/09/01 17:51:19;;;;;;;3.83;0.85;;;20.20;77.50;;;18.33;62.06;100110.09;10336108;28;96656;-91
2022/09/01 17:56:52;;;;;;;3.38;0.70;;;20.10;77.70;;;18.16;62.05;100123.25;10348163;28;97043;-91
2022/09/01 18:02:08;;;;;;;1.50;0.90;;;19.80;77.90;;;17.97;62.61;100131.50;10362943;28;98172;-92
2022/09/01 18:07:51;;;;;;;1.95;0.95;;;19.70;78.90;;;17.80;63.35;100137.38;10353968;28;98398;-92
2022/09/01 18:13:09;;;;;;;2.47;0.98;;;19.50;79.70;;;17.62;63.32;100137.25;10353179;28;96710;-91
2022/09/01 18:18:36;;;;;;;3.45;0.90;;;19.30;80.30;;;17.47;63.01;100152.84;10348254;28;96914;-92
2022/09/01 18:23:42;;;;;;;1.38;0.80;;;19.10;80.40;;;17.31;63.12;100149.59;10376359;28;96777;-91
2022/09/01 18:28:49;;;;;;;2.55;0.88;;;18.90;80.70;;;17.19;62.87;100145.94;10344417;28;100101;-90
2022/09/01 18:34:35;;;;;;;1.85;1.00;;;18.80;81.20;;;17.11;63.47;100154.22;10356709;28;97389;-92
2022/09/01 18:40:06;;;;;;;1.50;0.90;;;18.70;81.90;;;17.03;63.66;100162.50;10348190;28;96524;-91
2022/09/01 18:45:44;;;;;;;3.80;1.25;;;18.60;81.70;;;16.96;63.50;100161.69;10374949;28;96794;-91
2022/09/01 18:51:37;;;;;;;5.80;1.50;;;18.50;81.50;;;16.85;63.62;100171.19;10358628;28;98665;-90
2022/09/01 18:56:59;;;;;;;1.50;0.80;;;18.40;81.90;;;16.72;63.69;100165.88;10195080;28;98641;-91
2022/09/01 19:02:18;;;;;;;1.10;0.80;;;18.30;82.10;;;16.68;64.21;100169.97;10354485;28;96656;-91
2022/09/01 19:07:42;;;;;;;1.95;0.70;;;18.30;82.60;;;16.62;64.13;100170.81;10351964;28;98522;-90
2022/09/01 19:13:00;;;;;;;1.73;0.50;;;18.20;82.30;;;16.58;63.86;100183.81;10331201;28;96630;-90
2022/09/01 19:18:37;;;;;;;1.25;0.60;;;18.20;82.10;;;16.57;63.89;100180.31;10330861;28;98576;-91
2022/09/01 19:23:58;;;;;;;3.70;0.70;;;18.20;82.50;;;16.59;64.91;100180.91;10335253;28;96901;-91
2022/09/01 19:29:12;;;;;;;1.45;0.70;;;18.20;82.80;;;16.59;65.54;100182.78;10318312;28;98587;-90
2022/09/01 19:34:25;;;;;;;1.77;0.77;;;18.30;83.10;;;16.66;66.31;100186.28;10315660;28;96675;-91
2022/09/01 19:39:40;;;;;;;1.75;0.70;;;18.30;83.60;;;16.69;67.04;100203.81;10315568;28;98463;-91
2022/09/01 19:45:10;;;;;;;11.80;2.50;;;18.40;84.20;;;16.71;67.52;100204.47;10314612;28;98280;-91
2022/09/01 19:50:34;;;;;;;4.10;1.65;;;18.40;85.60;;;16.73;68.29;100215.81;10326507;28;96613;-91
2022/09/01 19:55:54;;;;;;;4.57;1.70;;;18.40;86.30;;;16.73;68.50;100213.97;10319980;28;97081;-90
2022/09/01 20:01:02;;;;;;;3.22;1.80;;;18.40;86.70;;;16.73;69.23;100226.53;10328714;28;97795;-92
2022/09/01 20:06:34;;;;;;;4.47;1.77;;;18.40;87.40;;;16.72;69.67;100233.78;10325261;28;97323;-92
2022/09/01 20:11:52;;;;;;;3.70;1.30;;;18.40;88.50;;;16.70;69.95;100237.66;10349293;28;98470;-92
2022/09/01 20:17:02;;;;;;;5.32;1.70;;;18.30;88.90;;;16.67;70.45;100244.25;10342782;28;98437;-93
2022/09/01 20:22:40;;;;;;;3.35;1.70;;;18.30;89.30;;;16.60;70.51;100246.94;10334616;28;96915;-91
2022/09/01 20:28:02;;;;;;;2.22;0.90;;;18.30;90.00;;;16.55;70.22;100252.13;10331959;28;96760;-91
2022/09/01 20:33:36;;;;;;;5.25;0.98;;;18.20;90.20;;;16.51;70.13;100247.38;10328989;28;96946;-93
2022/09/01 20:44:58;;;;;;;1.08;0.43;;;18.10;90.00;;;16.47;67.98;100256.84;10319411;28;96462;-91
2022/09/01 20:50:09;;;;;;;1.75;0.80;;;18.10;89.10;;;16.50;67.30;100259.13;10312907;28;97846;-92
2022/09/01 20:55:23;;;;;;;1.08;0.63;;;18.10;88.40;;;16.53;67.11;100259.53;10308696;28;96780;-92
2022/09/01 21:00:29;;;;;;;2.28;1.15;;;18.20;87.90;;;16.51;66.60;100263.47;10308688;28;98127;-91
2022/09/01 21:05:35;;;;;;;3.08;1.02;;;18.10;87.60;;;16.48;66.22;100266.53;10330384;28;97117;-92
2022/09/01 21:11:12;;;;;;;2.20;0.90;;;18.10;87.40;;;16.40;66.14;100270.25;10352075;28;96575;-91
2022/09/01 21:16:41;;;;;;;1.60;0.70;;;18.10;87.50;;;16.32;65.97;100268.59;10360124;28;97770;-91
2022/09/01 21:22:12;;;;;;;4.15;1.05;;;18.00;87.70;;;16.22;66.52;100278.88;10367531;28;96877;-92
2022/09/01 21:27:25;;;;;;;3.40;1.00;;;17.90;87.50;;;16.16;66.72;100279.69;10356087;28;96645;-92
2022/09/01 21:32:32;;;;;;;10.80;0.93;;;17.80;87.70;;;16.07;66.45;100283.56;10338734;28;96617;-93